• Join FlightAware (Why Join?)
  • Login
  • US Flag 
04:29AM EDT


 

Airport Tracker/Info


-or-


 

Live Flight TrackerFlight Track Log ✈ DAL3759 ✈ 22-Apr-2013 ✈ KATL - KTYS

Flight Track Log - Related Links

Times and Time Zones

All times are in EDT time to prevent confusion due to time zone crossing. See the DAL3759 flight status page for this flight to view local times or setup timezone preferences in your user account.

Time Position Orientation Groundspeed Altitude Reporting Facility
EDT Latitude Longitude Course Direction KTS MPH feet Rate Location/Type
10:07AM 33.6500 -84.3833 320° Northwest 150 173 2,500  Level Atlanta TRACON
10:08AM 33.6667 -84.3167 73° East 225 259 3,900 1,620 Climbing Atlanta TRACON
10:09AM 33.6667 -84.2500 90° East 265 305 5,600 2,460 Climbing Atlanta TRACON
10:10AM 33.7167 -84.2000 40° Northeast 307 353 8,600 2,760 Climbing Atlanta TRACON
10:11AM 33.8684 -84.2017 320° Northwest  Level FlightAware Approximate
10:11AM 33.8167 -84.2333 345° North 295 339 11,400  Level Atlanta TRACON
10:12AM 33.9315 -84.2648 320° Northwest  Level FlightAware Approximate
10:12AM 33.8833 -84.2667 337° Northwest 315 362 13,000  Level Atlanta TRACON
10:14AM 34.1214 -84.3675 341° North 384 442 13,100  Climbing Atlanta Center
10:15AM 34.2258 -84.4006 345° North 384 442 13,100 -60 Level Atlanta Center
10:16AM 34.3342 -84.4236 350° North 384 442 13,000 -60 Descending Atlanta Center
10:17AM 34.4469 -84.4217 North 389 448 13,000  Level Atlanta Center
10:18AM 34.5597 -84.4147 North 401 461 13,000  Level Atlanta Center
10:19AM 34.6703 -84.4125 North 401 461 13,000  Level Atlanta Center
10:20AM 34.7808 -84.4106 North 401 461 13,000  Level Atlanta Center
10:21AM 34.8978 -84.4086 North 408 470 13,000  Level Atlanta Center
10:22AM 34.9936 -84.4089 360° North 401 461 13,000 -540 Level Atlanta Center
10:23AM 35.1003 -84.3789 13° North 401 461 12,000 -960 Descending Atlanta Center
10:24AM 35.1964 -84.3286 23° Northeast 383 441 11,100 -540 Descending Atlanta Center
10:25AM 35.2944 -84.2728 25° Northeast 378 435 11,000 -360 Descending Atlanta Center
10:26AM 35.3886 -84.2247 23° Northeast 372 428 10,400 -1,080 Descending Atlanta Center
10:27AM 35.4636 -84.1867 22° Northeast 329 379 8,900 -1,560 Descending Atlanta Center
10:28AM 35.5306 -84.1486 25° Northeast 286 329 7,300 -1,680 Descending Atlanta Center
10:29AM 35.5994 -84.1281 14° North 259 298 5,600 -1,740 Descending Atlanta Center